sensor_id;sensor_type;location;lat;lon;timestamp;P1;durP1;ratioP1;P2;durP2;ratioP2
24617;SDS011;12762;51.730;5.356;2022-12-29T00:00:15;2.87;;;1.70;;
24617;SDS011;12762;51.730;5.356;2022-12-29T00:02:42;2.23;;;1.53;;
24617;SDS011;12762;51.730;5.356;2022-12-29T00:05:09;2.77;;;1.50;;
24617;SDS011;12762;51.730;5.356;2022-12-29T00:07:36;1.93;;;1.40;;
24617;SDS011;12762;51.730;5.356;2022-12-29T00:10:03;2.10;;;1.40;;
24617;SDS011;12762;51.730;5.356;2022-12-29T00:12:30;1.90;;;1.40;;
24617;SDS011;12762;51.730;5.356;2022-12-29T00:15:17;1.43;;;1.00;;
24617;SDS011;12762;51.730;5.356;2022-12-29T00:18:02;1.53;;;1.07;;
24617;SDS011;12762;51.730;5.356;2022-12-29T00:20:29;1.97;;;1.10;;
24617;SDS011;12762;51.730;5.356;2022-12-29T00:23:18;2.27;;;1.30;;
24617;SDS011;12762;51.730;5.356;2022-12-29T00:26:05;1.53;;;1.00;;
24617;SDS011;12762;51.730;5.356;2022-12-29T00:29:00;3.23;;;1.13;;
24617;SDS011;12762;51.730;5.356;2022-12-29T00:31:47;1.70;;;1.10;;
24617;SDS011;12762;51.730;5.356;2022-12-29T00:34:33;1.80;;;0.80;;
24617;SDS011;12762;51.730;5.356;2022-12-29T00:37:18;1.93;;;1.00;;
24617;SDS011;12762;51.730;5.356;2022-12-29T00:40:05;1.27;;;0.80;;
24617;SDS011;12762;51.730;5.356;2022-12-29T00:42:51;2.60;;;0.90;;
24617;SDS011;12762;51.730;5.356;2022-12-29T00:45:40;1.80;;;0.53;;
24617;SDS011;12762;51.730;5.356;2022-12-29T00:48:10;1.53;;;0.63;;
24617;SDS011;12762;51.730;5.356;2022-12-29T00:50:37;2.57;;;0.73;;
24617;SDS011;12762;51.730;5.356;2022-12-29T00:53:04;2.53;;;0.60;;
24617;SDS011;12762;51.730;5.356;2022-12-29T00:55:31;1.60;;;0.73;;
24617;SDS011;12762;51.730;5.356;2022-12-29T00:58:01;1.77;;;0.60;;
24617;SDS011;12762;51.730;5.356;2022-12-29T01:00:32;2.00;;;0.73;;
24617;SDS011;12762;51.730;5.356;2022-12-29T01:02:59;3.80;;;0.70;;
24617;SDS011;12762;51.730;5.356;2022-12-29T01:05:26;1.30;;;0.67;;
24617;SDS011;12762;51.730;5.356;2022-12-29T01:07:53;1.57;;;0.63;;
24617;SDS011;12762;51.730;5.356;2022-12-29T01:10:20;1.00;;;0.70;;
24617;SDS011;12762;51.730;5.356;2022-12-29T01:12:47;1.37;;;0.60;;
24617;SDS011;12762;51.730;5.356;2022-12-29T01:15:15;1.33;;;0.70;;
24617;SDS011;12762;51.730;5.356;2022-12-29T01:17:43;1.53;;;0.80;;
24617;SDS011;12762;51.730;5.356;2022-12-29T01:20:13;1.00;;;0.70;;
24617;SDS011;12762;51.730;5.356;2022-12-29T01:22:40;1.33;;;0.73;;
24617;SDS011;12762;51.730;5.356;2022-12-29T01:25:08;1.50;;;0.90;;
24617;SDS011;12762;51.730;5.356;2022-12-29T01:27:35;1.00;;;0.70;;
24617;SDS011;12762;51.730;5.356;2022-12-29T01:30:02;2.50;;;0.90;;
24617;SDS011;12762;51.730;5.356;2022-12-29T01:32:29;2.67;;;0.93;;
24617;SDS011;12762;51.730;5.356;2022-12-29T01:34:57;2.10;;;0.90;;
24617;SDS011;12762;51.730;5.356;2022-12-29T01:37:24;3.47;;;1.10;;
24617;SDS011;12762;51.730;5.356;2022-12-29T01:39:51;3.20;;;1.10;;
24617;SDS011;12762;51.730;5.356;2022-12-29T01:42:18;2.77;;;1.00;;
24617;SDS011;12762;51.730;5.356;2022-12-29T01:44:55;2.33;;;1.10;;
24617;SDS011;12762;51.730;5.356;2022-12-29T01:50:17;2.43;;;1.10;;
24617;SDS011;12762;51.730;5.356;2022-12-29T01:52:55;1.57;;;0.70;;
24617;SDS011;12762;51.730;5.356;2022-12-29T01:55:50;3.03;;;0.90;;
24617;SDS011;12762;51.730;5.356;2022-12-29T01:58:23;0.90;;;0.50;;
24617;SDS011;12762;51.730;5.356;2022-12-29T02:00:54;2.30;;;0.60;;
24617;SDS011;12762;51.730;5.356;2022-12-29T02:03:21;1.50;;;0.60;;
24617;SDS011;12762;51.730;5.356;2022-12-29T02:05:52;1.80;;;0.60;;
24617;SDS011;12762;51.730;5.356;2022-12-29T02:08:36;2.17;;;0.60;;
24617;SDS011;12762;51.730;5.356;2022-12-29T02:11:04;2.77;;;0.73;;
24617;SDS011;12762;51.730;5.356;2022-12-29T02:13:34;2.30;;;0.50;;
24617;SDS011;12762;51.730;5.356;2022-12-29T02:18:32;3.57;;;0.93;;
24617;SDS011;12762;51.730;5.356;2022-12-29T02:24:01;2.77;;;0.40;;
24617;SDS011;12762;51.730;5.356;2022-12-29T02:26:57;5.50;;;0.50;;
24617;SDS011;12762;51.730;5.356;2022-12-29T02:32:36;2.10;;;0.40;;
24617;SDS011;12762;51.730;5.356;2022-12-29T02:35:14;2.80;;;0.60;;
24617;SDS011;12762;51.730;5.356;2022-12-29T02:37:56;3.57;;;0.60;;
24617;SDS011;12762;51.730;5.356;2022-12-29T02:43:45;3.77;;;0.53;;
24617;SDS011;12762;51.730;5.356;2022-12-29T02:49:06;5.40;;;0.63;;
24617;SDS011;12762;51.730;5.356;2022-12-29T02:51:46;1.50;;;0.50;;
24617;SDS011;12762;51.730;5.356;2022-12-29T02:54:24;2.77;;;0.60;;
24617;SDS011;12762;51.730;5.356;2022-12-29T02:59:55;2.73;;;0.90;;
24617;SDS011;12762;51.730;5.356;2022-12-29T03:02:30;2.13;;;0.60;;
24617;SDS011;12762;51.730;5.356;2022-12-29T03:08:18;1.47;;;0.30;;
24617;SDS011;12762;51.730;5.356;2022-12-29T03:13:56;0.50;;;0.30;;
24617;SDS011;12762;51.730;5.356;2022-12-29T03:17:07;2.33;;;0.60;;
24617;SDS011;12762;51.730;5.356;2022-12-29T03:19:44;2.37;;;0.50;;
24617;SDS011;12762;51.730;5.356;2022-12-29T03:22:25;1.90;;;0.30;;
24617;SDS011;12762;51.730;5.356;2022-12-29T03:25:20;2.77;;;0.40;;
24617;SDS011;12762;51.730;5.356;2022-12-29T03:28:17;3.43;;;0.60;;
24617;SDS011;12762;51.730;5.356;2022-12-29T03:30:48;1.70;;;0.50;;
24617;SDS011;12762;51.730;5.356;2022-12-29T03:33:17;1.07;;;0.37;;
24617;SDS011;12762;51.730;5.356;2022-12-29T03:35:50;3.47;;;0.43;;
24617;SDS011;12762;51.730;5.356;2022-12-29T03:41:07;3.37;;;0.80;;
24617;SDS011;12762;51.730;5.356;2022-12-29T03:43:37;3.07;;;0.50;;
24617;SDS011;12762;51.730;5.356;2022-12-29T03:46:04;4.57;;;0.50;;
24617;SDS011;12762;51.730;5.356;2022-12-29T03:48:31;4.23;;;0.83;;
24617;SDS011;12762;51.730;5.356;2022-12-29T03:50:59;2.00;;;0.60;;
24617;SDS011;12762;51.730;5.356;2022-12-29T03:53:26;4.00;;;0.60;;
24617;SDS011;12762;51.730;5.356;2022-12-29T03:55:53;4.73;;;0.83;;
24617;SDS011;12762;51.730;5.356;2022-12-29T03:58:20;2.30;;;0.47;;
24617;SDS011;12762;51.730;5.356;2022-12-29T04:00:47;3.57;;;0.63;;
24617;SDS011;12762;51.730;5.356;2022-12-29T04:03:17;3.97;;;0.80;;
24617;SDS011;12762;51.730;5.356;2022-12-29T04:05:43;1.80;;;0.50;;
24617;SDS011;12762;51.730;5.356;2022-12-29T04:08:10;1.80;;;0.53;;
24617;SDS011;12762;51.730;5.356;2022-12-29T04:10:37;2.87;;;0.60;;
24617;SDS011;12762;51.730;5.356;2022-12-29T04:13:04;2.43;;;0.60;;
24617;SDS011;12762;51.730;5.356;2022-12-29T04:15:33;2.47;;;0.57;;
24617;SDS011;12762;51.730;5.356;2022-12-29T04:18:03;1.70;;;0.47;;
24617;SDS011;12762;51.730;5.356;2022-12-29T04:20:29;3.80;;;0.60;;
24617;SDS011;12762;51.730;5.356;2022-12-29T04:23:15;2.93;;;0.67;;
24617;SDS011;12762;51.730;5.356;2022-12-29T04:25:44;3.30;;;0.67;;
24617;SDS011;12762;51.730;5.356;2022-12-29T04:28:15;2.23;;;0.67;;
24617;SDS011;12762;51.730;5.356;2022-12-29T04:30:44;2.70;;;0.77;;
24617;SDS011;12762;51.730;5.356;2022-12-29T04:33:11;3.07;;;0.60;;
24617;SDS011;12762;51.730;5.356;2022-12-29T04:35:39;3.13;;;0.70;;
24617;SDS011;12762;51.730;5.356;2022-12-29T04:38:06;2.80;;;0.73;;
24617;SDS011;12762;51.730;5.356;2022-12-29T04:40:33;4.00;;;0.73;;
24617;SDS011;12762;51.730;5.356;2022-12-29T04:43:00;6.60;;;1.20;;
24617;SDS011;12762;51.730;5.356;2022-12-29T04:45:27;4.07;;;0.80;;
24617;SDS011;12762;51.730;5.356;2022-12-29T04:47:53;5.50;;;1.13;;
24617;SDS011;12762;51.730;5.356;2022-12-29T04:50:23;2.73;;;0.83;;
24617;SDS011;12762;51.730;5.356;2022-12-29T04:52:50;6.13;;;0.97;;
24617;SDS011;12762;51.730;5.356;2022-12-29T04:55:16;2.83;;;0.70;;
24617;SDS011;12762;51.730;5.356;2022-12-29T04:57:43;0.90;;;0.50;;
24617;SDS011;12762;51.730;5.356;2022-12-29T05:00:10;3.27;;;0.80;;
24617;SDS011;12762;51.730;5.356;2022-12-29T05:02:38;3.50;;;0.73;;
24617;SDS011;12762;51.730;5.356;2022-12-29T05:05:05;3.80;;;0.73;;
24617;SDS011;12762;51.730;5.356;2022-12-29T05:07:32;1.77;;;0.77;;
24617;SDS011;12762;51.730;5.356;2022-12-29T05:09:59;3.73;;;0.90;;
24617;SDS011;12762;51.730;5.356;2022-12-29T05:12:29;5.90;;;1.03;;
24617;SDS011;12762;51.730;5.356;2022-12-29T05:14:57;5.30;;;0.90;;
24617;SDS011;12762;51.730;5.356;2022-12-29T05:17:24;1.53;;;0.73;;
24617;SDS011;12762;51.730;5.356;2022-12-29T05:19:51;5.57;;;1.20;;
24617;SDS011;12762;51.730;5.356;2022-12-29T05:22:18;3.67;;;0.93;;
24617;SDS011;12762;51.730;5.356;2022-12-29T05:24:45;5.37;;;0.90;;
24617;SDS011;12762;51.730;5.356;2022-12-29T05:27:12;4.93;;;0.90;;
24617;SDS011;12762;51.730;5.356;2022-12-29T05:29:39;4.70;;;1.10;;
24617;SDS011;12762;51.730;5.356;2022-12-29T05:32:06;4.13;;;1.23;;
24617;SDS011;12762;51.730;5.356;2022-12-29T05:34:33;7.43;;;1.13;;
24617;SDS011;12762;51.730;5.356;2022-12-29T05:37:00;5.00;;;0.97;;
24617;SDS011;12762;51.730;5.356;2022-12-29T05:39:28;4.93;;;0.70;;
24617;SDS011;12762;51.730;5.356;2022-12-29T05:41:58;6.93;;;0.90;;
24617;SDS011;12762;51.730;5.356;2022-12-29T05:44:25;7.37;;;1.10;;
24617;SDS011;12762;51.730;5.356;2022-12-29T05:46:52;4.70;;;0.83;;
24617;SDS011;12762;51.730;5.356;2022-12-29T05:49:19;5.37;;;0.80;;
24617;SDS011;12762;51.730;5.356;2022-12-29T05:51:46;3.47;;;0.73;;
24617;SDS011;12762;51.730;5.356;2022-12-29T05:54:13;5.87;;;1.17;;
24617;SDS011;12762;51.730;5.356;2022-12-29T05:56:39;8.40;;;1.20;;
24617;SDS011;12762;51.730;5.356;2022-12-29T05:59:06;5.37;;;0.90;;
24617;SDS011;12762;51.730;5.356;2022-12-29T06:01:33;4.93;;;0.97;;
24617;SDS011;12762;51.730;5.356;2022-12-29T06:04:01;6.80;;;1.00;;
24617;SDS011;12762;51.730;5.356;2022-12-29T06:06:28;6.57;;;1.07;;
24617;SDS011;12762;51.730;5.356;2022-12-29T06:08:55;6.60;;;0.90;;
24617;SDS011;12762;51.730;5.356;2022-12-29T06:11:22;3.83;;;0.77;;
24617;SDS011;12762;51.730;5.356;2022-12-29T06:13:49;4.63;;;0.77;;
24617;SDS011;12762;51.730;5.356;2022-12-29T06:16:16;3.80;;;0.80;;
24617;SDS011;12762;51.730;5.356;2022-12-29T06:18:43;4.23;;;0.70;;
24617;SDS011;12762;51.730;5.356;2022-12-29T06:21:10;4.23;;;0.80;;
24617;SDS011;12762;51.730;5.356;2022-12-29T06:23:36;6.37;;;0.80;;
24617;SDS011;12762;51.730;5.356;2022-12-29T06:26:03;10.17;;;1.70;;
24617;SDS011;12762;51.730;5.356;2022-12-29T06:28:30;4.37;;;0.73;;
24617;SDS011;12762;51.730;5.356;2022-12-29T06:30:57;2.97;;;0.63;;
24617;SDS011;12762;51.730;5.356;2022-12-29T06:33:24;6.00;;;1.20;;
24617;SDS011;12762;51.730;5.356;2022-12-29T06:35:51;5.37;;;1.10;;
24617;SDS011;12762;51.730;5.356;2022-12-29T06:38:27;4.40;;;0.97;;
24617;SDS011;12762;51.730;5.356;2022-12-29T06:40:55;6.97;;;1.30;;
24617;SDS011;12762;51.730;5.356;2022-12-29T06:43:22;6.90;;;1.00;;
24617;SDS011;12762;51.730;5.356;2022-12-29T06:45:48;2.90;;;0.70;;
24617;SDS011;12762;51.730;5.356;2022-12-29T06:48:18;4.93;;;0.67;;
24617;SDS011;12762;51.730;5.356;2022-12-29T06:50:44;5.10;;;0.80;;
24617;SDS011;12762;51.730;5.356;2022-12-29T06:53:11;2.17;;;0.60;;
24617;SDS011;12762;51.730;5.356;2022-12-29T06:55:41;9.30;;;1.10;;
24617;SDS011;12762;51.730;5.356;2022-12-29T06:58:08;6.27;;;1.07;;
24617;SDS011;12762;51.730;5.356;2022-12-29T07:00:35;4.13;;;0.67;;
24617;SDS011;12762;51.730;5.356;2022-12-29T07:03:02;5.10;;;0.83;;
24617;SDS011;12762;51.730;5.356;2022-12-29T07:05:29;6.47;;;1.03;;
24617;SDS011;12762;51.730;5.356;2022-12-29T07:07:58;4.17;;;0.90;;
24617;SDS011;12762;51.730;5.356;2022-12-29T07:10:31;4.63;;;0.70;;
24617;SDS011;12762;51.730;5.356;2022-12-29T07:12:58;5.30;;;0.90;;
24617;SDS011;12762;51.730;5.356;2022-12-29T07:15:25;5.57;;;1.30;;
24617;SDS011;12762;51.730;5.356;2022-12-29T07:17:51;7.17;;;1.13;;
24617;SDS011;12762;51.730;5.356;2022-12-29T07:20:18;5.27;;;1.00;;
24617;SDS011;12762;51.730;5.356;2022-12-29T07:22:52;6.13;;;0.90;;
24617;SDS011;12762;51.730;5.356;2022-12-29T07:25:18;9.17;;;1.30;;
24617;SDS011;12762;51.730;5.356;2022-12-29T07:27:45;7.23;;;1.10;;
24617;SDS011;12762;51.730;5.356;2022-12-29T07:30:12;7.47;;;1.20;;
24617;SDS011;12762;51.730;5.356;2022-12-29T07:32:39;4.37;;;1.03;;
24617;SDS011;12762;51.730;5.356;2022-12-29T07:35:06;5.00;;;0.97;;
24617;SDS011;12762;51.730;5.356;2022-12-29T07:37:34;6.47;;;1.30;;
24617;SDS011;12762;51.730;5.356;2022-12-29T07:40:01;6.30;;;1.20;;
24617;SDS011;12762;51.730;5.356;2022-12-29T07:42:30;5.80;;;0.87;;
24617;SDS011;12762;51.730;5.356;2022-12-29T07:44:57;6.57;;;1.10;;
24617;SDS011;12762;51.730;5.356;2022-12-29T07:47:25;6.67;;;1.10;;
24617;SDS011;12762;51.730;5.356;2022-12-29T07:49:52;5.40;;;0.80;;
24617;SDS011;12762;51.730;5.356;2022-12-29T07:52:19;7.87;;;1.23;;
24617;SDS011;12762;51.730;5.356;2022-12-29T07:54:46;9.50;;;1.60;;
24617;SDS011;12762;51.730;5.356;2022-12-29T07:57:13;10.13;;;1.53;;
24617;SDS011;12762;51.730;5.356;2022-12-29T07:59:40;7.07;;;1.00;;
24617;SDS011;12762;51.730;5.356;2022-12-29T08:02:09;4.97;;;1.50;;
24617;SDS011;12762;51.730;5.356;2022-12-29T08:04:37;5.47;;;1.03;;
24617;SDS011;12762;51.730;5.356;2022-12-29T08:07:04;8.53;;;1.60;;
24617;SDS011;12762;51.730;5.356;2022-12-29T08:09:31;6.67;;;0.90;;
24617;SDS011;12762;51.730;5.356;2022-12-29T08:11:58;8.60;;;1.50;;
24617;SDS011;12762;51.730;5.356;2022-12-29T08:14:25;5.70;;;1.33;;
24617;SDS011;12762;51.730;5.356;2022-12-29T08:16:51;10.67;;;1.27;;
24617;SDS011;12762;51.730;5.356;2022-12-29T08:19:18;6.30;;;1.30;;
24617;SDS011;12762;51.730;5.356;2022-12-29T08:21:45;7.43;;;1.07;;
24617;SDS011;12762;51.730;5.356;2022-12-29T08:24:12;4.53;;;1.00;;
24617;SDS011;12762;51.730;5.356;2022-12-29T08:26:39;7.00;;;1.20;;
24617;SDS011;12762;51.730;5.356;2022-12-29T08:29:06;13.13;;;1.70;;
24617;SDS011;12762;51.730;5.356;2022-12-29T08:31:33;5.17;;;0.93;;
24617;SDS011;12762;51.730;5.356;2022-12-29T08:34:00;10.90;;;1.57;;
24617;SDS011;12762;51.730;5.356;2022-12-29T08:36:27;7.13;;;1.20;;
24617;SDS011;12762;51.730;5.356;2022-12-29T08:38:54;11.10;;;1.40;;
24617;SDS011;12762;51.730;5.356;2022-12-29T08:41:21;9.87;;;1.50;;
24617;SDS011;12762;51.730;5.356;2022-12-29T08:43:48;9.50;;;1.30;;
24617;SDS011;12762;51.730;5.356;2022-12-29T08:46:15;5.93;;;1.10;;
24617;SDS011;12762;51.730;5.356;2022-12-29T08:48:43;10.07;;;1.30;;
24617;SDS011;12762;51.730;5.356;2022-12-29T08:51:10;8.00;;;1.37;;
24617;SDS011;12762;51.730;5.356;2022-12-29T08:53:36;6.87;;;1.13;;
24617;SDS011;12762;51.730;5.356;2022-12-29T08:56:03;5.67;;;1.10;;
24617;SDS011;12762;51.730;5.356;2022-12-29T08:58:31;17.77;;;2.23;;
24617;SDS011;12762;51.730;5.356;2022-12-29T09:00:58;3.37;;;0.70;;
24617;SDS011;12762;51.730;5.356;2022-12-29T09:03:25;26.13;;;3.20;;
24617;SDS011;12762;51.730;5.356;2022-12-29T09:06:13;8.97;;;1.57;;
24617;SDS011;12762;51.730;5.356;2022-12-29T09:08:41;6.53;;;1.10;;
24617;SDS011;12762;51.730;5.356;2022-12-29T09:13:36;6.57;;;0.87;;
24617;SDS011;12762;51.730;5.356;2022-12-29T09:16:03;10.23;;;1.20;;
24617;SDS011;12762;51.730;5.356;2022-12-29T09:18:30;9.97;;;1.90;;
24617;SDS011;12762;51.730;5.356;2022-12-29T09:21:01;12.00;;;1.53;;
24617;SDS011;12762;51.730;5.356;2022-12-29T09:23:29;7.60;;;1.20;;
24617;SDS011;12762;51.730;5.356;2022-12-29T09:25:56;6.57;;;1.13;;
24617;SDS011;12762;51.730;5.356;2022-12-29T09:28:31;10.30;;;1.33;;
24617;SDS011;12762;51.730;5.356;2022-12-29T09:30:59;7.23;;;1.50;;
24617;SDS011;12762;51.730;5.356;2022-12-29T09:33:26;6.93;;;1.13;;
24617;SDS011;12762;51.730;5.356;2022-12-29T09:35:56;8.97;;;1.20;;
24617;SDS011;12762;51.730;5.356;2022-12-29T09:38:25;8.43;;;1.23;;
24617;SDS011;12762;51.730;5.356;2022-12-29T09:40:53;6.30;;;1.10;;
24617;SDS011;12762;51.730;5.356;2022-12-29T09:48:55;12.07;;;1.80;;
24617;SDS011;12762;51.730;5.356;2022-12-29T09:51:35;8.47;;;1.33;;
24617;SDS011;12762;51.730;5.356;2022-12-29T09:54:11;5.33;;;1.17;;
24617;SDS011;12762;51.730;5.356;2022-12-29T09:56:45;5.30;;;1.13;;
24617;SDS011;12762;51.730;5.356;2022-12-29T09:59:17;7.93;;;1.20;;
24617;SDS011;12762;51.730;5.356;2022-12-29T10:04:20;7.97;;;1.40;;
24617;SDS011;12762;51.730;5.356;2022-12-29T10:12:53;9.13;;;1.73;;
24617;SDS011;12762;51.730;5.356;2022-12-29T10:18:18;7.07;;;1.33;;
24617;SDS011;12762;51.730;5.356;2022-12-29T10:24:11;6.97;;;1.77;;
24617;SDS011;12762;51.730;5.356;2022-12-29T10:26:40;8.13;;;1.40;;
24617;SDS011;12762;51.730;5.356;2022-12-29T10:31:46;6.37;;;1.13;;
24617;SDS011;12762;51.730;5.356;2022-12-29T10:34:25;5.77;;;1.20;;
24617;SDS011;12762;51.730;5.356;2022-12-29T10:37:24;8.63;;;1.30;;
24617;SDS011;12762;51.730;5.356;2022-12-29T10:40:17;6.73;;;1.47;;
24617;SDS011;12762;51.730;5.356;2022-12-29T10:42:59;9.67;;;1.70;;
24617;SDS011;12762;51.730;5.356;2022-12-29T10:45:29;7.07;;;1.30;;
24617;SDS011;12762;51.730;5.356;2022-12-29T10:48:02;7.07;;;1.43;;
24617;SDS011;12762;51.730;5.356;2022-12-29T10:50:31;13.03;;;2.00;;
24617;SDS011;12762;51.730;5.356;2022-12-29T10:52:59;10.10;;;1.93;;
24617;SDS011;12762;51.730;5.356;2022-12-29T10:55:30;6.90;;;1.50;;
24617;SDS011;12762;51.730;5.356;2022-12-29T10:58:01;9.03;;;2.60;;
24617;SDS011;12762;51.730;5.356;2022-12-29T11:00:31;12.10;;;2.83;;
24617;SDS011;12762;51.730;5.356;2022-12-29T11:08:27;12.37;;;2.53;;
24617;SDS011;12762;51.730;5.356;2022-12-29T11:11:04;9.23;;;1.70;;
24617;SDS011;12762;51.730;5.356;2022-12-29T11:13:46;11.00;;;2.33;;
24617;SDS011;12762;51.730;5.356;2022-12-29T11:16:15;7.27;;;2.00;;
24617;SDS011;12762;51.730;5.356;2022-12-29T11:18:57;8.10;;;2.10;;
24617;SDS011;12762;51.730;5.356;2022-12-29T11:24:03;8.17;;;2.07;;
24617;SDS011;12762;51.730;5.356;2022-12-29T11:26:31;8.67;;;2.03;;
24617;SDS011;12762;51.730;5.356;2022-12-29T11:31:43;9.03;;;2.37;;
24617;SDS011;12762;51.730;5.356;2022-12-29T11:34:34;12.53;;;2.40;;
24617;SDS011;12762;51.730;5.356;2022-12-29T11:37:03;7.43;;;1.97;;
24617;SDS011;12762;51.730;5.356;2022-12-29T11:39:37;8.83;;;2.00;;
24617;SDS011;12762;51.730;5.356;2022-12-29T11:42:18;11.70;;;2.87;;
24617;SDS011;12762;51.730;5.356;2022-12-29T11:44:49;9.80;;;2.40;;
24617;SDS011;12762;51.730;5.356;2022-12-29T11:47:29;19.27;;;3.03;;
24617;SDS011;12762;51.730;5.356;2022-12-29T11:49:59;10.47;;;2.77;;
24617;SDS011;12762;51.730;5.356;2022-12-29T11:52:30;10.23;;;2.33;;
24617;SDS011;12762;51.730;5.356;2022-12-29T11:55:03;12.77;;;2.30;;
24617;SDS011;12762;51.730;5.356;2022-12-29T11:57:33;14.40;;;3.10;;
24617;SDS011;12762;51.730;5.356;2022-12-29T12:00:03;9.57;;;2.27;;
24617;SDS011;12762;51.730;5.356;2022-12-29T12:02:48;11.80;;;2.47;;
24617;SDS011;12762;51.730;5.356;2022-12-29T12:07:52;10.97;;;2.20;;
24617;SDS011;12762;51.730;5.356;2022-12-29T12:10:38;11.93;;;2.77;;
24617;SDS011;12762;51.730;5.356;2022-12-29T12:13:47;10.63;;;1.97;;
24617;SDS011;12762;51.730;5.356;2022-12-29T12:16:13;11.40;;;2.13;;
24617;SDS011;12762;51.730;5.356;2022-12-29T12:18:57;10.57;;;2.20;;
24617;SDS011;12762;51.730;5.356;2022-12-29T12:27:23;11.17;;;2.37;;
24617;SDS011;12762;51.730;5.356;2022-12-29T12:40:50;8.53;;;2.23;;
24617;SDS011;12762;51.730;5.356;2022-12-29T12:49:30;12.97;;;2.57;;
24617;SDS011;12762;51.730;5.356;2022-12-29T12:52:27;9.20;;;1.83;;
24617;SDS011;12762;51.730;5.356;2022-12-29T12:57:56;9.40;;;1.70;;
24617;SDS011;12762;51.730;5.356;2022-12-29T13:00:32;10.33;;;2.00;;
24617;SDS011;12762;51.730;5.356;2022-12-29T13:08:45;9.07;;;2.40;;
24617;SDS011;12762;51.730;5.356;2022-12-29T13:19:56;10.57;;;2.17;;
24617;SDS011;12762;51.730;5.356;2022-12-29T13:33:49;5.70;;;1.70;;
24617;SDS011;12762;51.730;5.356;2022-12-29T13:39:17;2.53;;;1.00;;
24617;SDS011;12762;51.730;5.356;2022-12-29T13:41:58;5.70;;;0.90;;
24617;SDS011;12762;51.730;5.356;2022-12-29T13:44:28;5.63;;;1.00;;
24617;SDS011;12762;51.730;5.356;2022-12-29T13:49:53;2.63;;;0.90;;
24617;SDS011;12762;51.730;5.356;2022-12-29T13:52:35;4.57;;;1.10;;
24617;SDS011;12762;51.730;5.356;2022-12-29T13:55:27;2.07;;;0.97;;
24617;SDS011;12762;51.730;5.356;2022-12-29T13:58:20;5.47;;;1.23;;
24617;SDS011;12762;51.730;5.356;2022-12-29T14:03:47;5.17;;;1.20;;
24617;SDS011;12762;51.730;5.356;2022-12-29T14:06:28;5.03;;;1.20;;
24617;SDS011;12762;51.730;5.356;2022-12-29T14:11:38;7.83;;;1.20;;
24617;SDS011;12762;51.730;5.356;2022-12-29T14:14:11;6.77;;;2.00;;
24617;SDS011;12762;51.730;5.356;2022-12-29T14:16:50;4.17;;;1.20;;
24617;SDS011;12762;51.730;5.356;2022-12-29T14:19:31;8.80;;;1.50;;
24617;SDS011;12762;51.730;5.356;2022-12-29T14:22:05;10.00;;;1.60;;
24617;SDS011;12762;51.730;5.356;2022-12-29T14:26:59;7.20;;;1.20;;
24617;SDS011;12762;51.730;5.356;2022-12-29T14:31:56;11.40;;;1.57;;
24617;SDS011;12762;51.730;5.356;2022-12-29T14:34:27;10.50;;;1.50;;
24617;SDS011;12762;51.730;5.356;2022-12-29T14:36:56;8.77;;;1.50;;
24617;SDS011;12762;51.730;5.356;2022-12-29T14:44:31;8.87;;;1.70;;
24617;SDS011;12762;51.730;5.356;2022-12-29T14:47:00;6.77;;;1.70;;
24617;SDS011;12762;51.730;5.356;2022-12-29T14:49:33;10.70;;;1.83;;
24617;SDS011;12762;51.730;5.356;2022-12-29T14:52:23;9.60;;;1.50;;
24617;SDS011;12762;51.730;5.356;2022-12-29T14:54:54;7.70;;;1.50;;
24617;SDS011;12762;51.730;5.356;2022-12-29T14:57:34;6.40;;;1.50;;
24617;SDS011;12762;51.730;5.356;2022-12-29T15:00:17;9.03;;;1.50;;
24617;SDS011;12762;51.730;5.356;2022-12-29T15:03:02;6.57;;;1.40;;
24617;SDS011;12762;51.730;5.356;2022-12-29T15:05:32;10.57;;;2.07;;
24617;SDS011;12762;51.730;5.356;2022-12-29T15:08:00;7.40;;;1.30;;
24617;SDS011;12762;51.730;5.356;2022-12-29T15:10:34;9.33;;;1.90;;
24617;SDS011;12762;51.730;5.356;2022-12-29T15:13:23;8.30;;;1.40;;
24617;SDS011;12762;51.730;5.356;2022-12-29T15:15:58;8.63;;;2.20;;
24617;SDS011;12762;51.730;5.356;2022-12-29T15:18:26;9.67;;;1.70;;
24617;SDS011;12762;51.730;5.356;2022-12-29T15:21:01;5.53;;;1.60;;
24617;SDS011;12762;51.730;5.356;2022-12-29T15:23:30;9.20;;;1.83;;
24617;SDS011;12762;51.730;5.356;2022-12-29T15:25:59;7.97;;;1.67;;
24617;SDS011;12762;51.730;5.356;2022-12-29T15:28:35;7.90;;;1.40;;
24617;SDS011;12762;51.730;5.356;2022-12-29T15:31:20;6.90;;;1.60;;
24617;SDS011;12762;51.730;5.356;2022-12-29T15:34:02;7.30;;;1.43;;
24617;SDS011;12762;51.730;5.356;2022-12-29T15:36:37;9.67;;;1.83;;
24617;SDS011;12762;51.730;5.356;2022-12-29T15:39:23;4.67;;;1.20;;
24617;SDS011;12762;51.730;5.356;2022-12-29T15:41:56;8.23;;;1.40;;
24617;SDS011;12762;51.730;5.356;2022-12-29T15:47:16;11.70;;;1.50;;
24617;SDS011;12762;51.730;5.356;2022-12-29T15:49:49;7.00;;;1.40;;
24617;SDS011;12762;51.730;5.356;2022-12-29T15:52:19;7.07;;;1.57;;
24617;SDS011;12762;51.730;5.356;2022-12-29T15:54:48;7.50;;;2.00;;
24617;SDS011;12762;51.730;5.356;2022-12-29T15:57:25;6.03;;;1.27;;
24617;SDS011;12762;51.730;5.356;2022-12-29T16:00:03;5.27;;;1.27;;
24617;SDS011;12762;51.730;5.356;2022-12-29T16:02:47;4.50;;;1.17;;
24617;SDS011;12762;51.730;5.356;2022-12-29T16:05:16;6.03;;;1.10;;
24617;SDS011;12762;51.730;5.356;2022-12-29T16:07:55;5.33;;;1.20;;
24617;SDS011;12762;51.730;5.356;2022-12-29T16:10:31;8.23;;;1.27;;
24617;SDS011;12762;51.730;5.356;2022-12-29T16:16:13;7.67;;;1.10;;
24617;SDS011;12762;51.730;5.356;2022-12-29T16:18:44;8.50;;;2.40;;
24617;SDS011;12762;51.730;5.356;2022-12-29T16:21:36;4.23;;;1.07;;
24617;SDS011;12762;51.730;5.356;2022-12-29T16:24:07;2.80;;;0.80;;
24617;SDS011;12762;51.730;5.356;2022-12-29T16:26:39;3.30;;;0.97;;
24617;SDS011;12762;51.730;5.356;2022-12-29T16:29:16;4.63;;;1.20;;
24617;SDS011;12762;51.730;5.356;2022-12-29T16:31:51;5.13;;;1.20;;
24617;SDS011;12762;51.730;5.356;2022-12-29T16:34:30;5.70;;;1.40;;
24617;SDS011;12762;51.730;5.356;2022-12-29T16:37:27;3.83;;;1.10;;
24617;SDS011;12762;51.730;5.356;2022-12-29T16:39:56;3.97;;;1.17;;
24617;SDS011;12762;51.730;5.356;2022-12-29T16:42:49;5.17;;;1.60;;
24617;SDS011;12762;51.730;5.356;2022-12-29T16:50:35;8.97;;;1.30;;
24617;SDS011;12762;51.730;5.356;2022-12-29T16:53:03;4.27;;;1.20;;
24617;SDS011;12762;51.730;5.356;2022-12-29T16:55:32;6.03;;;1.23;;
24617;SDS011;12762;51.730;5.356;2022-12-29T16:57:59;4.27;;;0.90;;
24617;SDS011;12762;51.730;5.356;2022-12-29T17:00:27;6.67;;;1.07;;
24617;SDS011;12762;51.730;5.356;2022-12-29T17:02:58;3.50;;;1.23;;
24617;SDS011;12762;51.730;5.356;2022-12-29T17:05:29;5.37;;;1.43;;
24617;SDS011;12762;51.730;5.356;2022-12-29T17:07:59;5.77;;;1.40;;
24617;SDS011;12762;51.730;5.356;2022-12-29T17:10:27;7.90;;;1.10;;
24617;SDS011;12762;51.730;5.356;2022-12-29T17:13:14;8.60;;;1.93;;
24617;SDS011;12762;51.730;5.356;2022-12-29T17:15:41;8.27;;;1.63;;
24617;SDS011;12762;51.730;5.356;2022-12-29T17:18:08;5.47;;;1.43;;
24617;SDS011;12762;51.730;5.356;2022-12-29T17:20:39;5.97;;;1.60;;
24617;SDS011;12762;51.730;5.356;2022-12-29T17:23:11;5.90;;;1.50;;
24617;SDS011;12762;51.730;5.356;2022-12-29T17:25:49;7.67;;;1.17;;
24617;SDS011;12762;51.730;5.356;2022-12-29T17:28:21;6.17;;;1.40;;
24617;SDS011;12762;51.730;5.356;2022-12-29T17:30:51;7.10;;;1.30;;
24617;SDS011;12762;51.730;5.356;2022-12-29T17:33:20;7.57;;;1.40;;
24617;SDS011;12762;51.730;5.356;2022-12-29T17:35:47;6.67;;;1.10;;
24617;SDS011;12762;51.730;5.356;2022-12-29T17:38:21;5.67;;;1.20;;
24617;SDS011;12762;51.730;5.356;2022-12-29T17:40:53;9.50;;;2.00;;
24617;SDS011;12762;51.730;5.356;2022-12-29T17:43:20;7.17;;;1.50;;
24617;SDS011;12762;51.730;5.356;2022-12-29T17:45:48;6.43;;;1.47;;